sensor_id;sensor_type;location;lat;lon;timestamp;temperature;humidity
59651;DHT22;45954;49.768;8.636;2023-02-28T00:01:25;1.40;99.30
59651;DHT22;45954;49.768;8.636;2023-02-28T00:03:51;1.30;99.40
59651;DHT22;45954;49.768;8.636;2023-02-28T00:06:17;1.20;99.70
59651;DHT22;45954;49.768;8.636;2023-02-28T00:08:43;1.20;99.70
59651;DHT22;45954;49.768;8.636;2023-02-28T00:11:11;1.30;99.60
59651;DHT22;45954;49.768;8.636;2023-02-28T00:13:41;1.50;99.10
59651;DHT22;45954;49.768;8.636;2023-02-28T00:16:11;1.60;99.10
59651;DHT22;45954;49.768;8.636;2023-02-28T00:18:40;1.30;99.10
59651;DHT22;45954;49.768;8.636;2023-02-28T00:21:07;1.50;99.10
59651;DHT22;45954;49.768;8.636;2023-02-28T00:23:33;1.40;99.60
59651;DHT22;45954;49.768;8.636;2023-02-28T00:25:59;1.40;99.40
59651;DHT22;45954;49.768;8.636;2023-02-28T00:28:25;1.60;99.10
59651;DHT22;45954;49.768;8.636;2023-02-28T00:30:51;1.50;99.20
59651;DHT22;45954;49.768;8.636;2023-02-28T00:33:17;1.30;99.80
59651;DHT22;45954;49.768;8.636;2023-02-28T00:35:43;1.40;99.80
59651;DHT22;45954;49.768;8.636;2023-02-28T00:38:12;1.20;99.90
59651;DHT22;45954;49.768;8.636;2023-02-28T00:40:39;1.10;99.90
59651;DHT22;45954;49.768;8.636;2023-02-28T00:43:05;1.10;99.90
59651;DHT22;45954;49.768;8.636;2023-02-28T00:45:30;0.90;99.90
59651;DHT22;45954;49.768;8.636;2023-02-28T00:47:56;0.90;99.90
59651;DHT22;45954;49.768;8.636;2023-02-28T00:50:22;0.90;99.90
59651;DHT22;45954;49.768;8.636;2023-02-28T00:52:48;0.80;99.90
59651;DHT22;45954;49.768;8.636;2023-02-28T00:55:15;1.00;99.90
59651;DHT22;45954;49.768;8.636;2023-02-28T00:57:41;1.20;99.90
59651;DHT22;45954;49.768;8.636;2023-02-28T01:00:07;1.10;99.90
59651;DHT22;45954;49.768;8.636;2023-02-28T01:02:34;1.30;99.90
59651;DHT22;45954;49.768;8.636;2023-02-28T01:05:00;1.40;99.80
59651;DHT22;45954;49.768;8.636;2023-02-28T01:07:26;1.40;99.80
59651;DHT22;45954;49.768;8.636;2023-02-28T01:09:51;1.50;99.90
59651;DHT22;45954;49.768;8.636;2023-02-28T01:12:17;1.60;99.60
59651;DHT22;45954;49.768;8.636;2023-02-28T01:14:43;1.40;99.90
59651;DHT22;45954;49.768;8.636;2023-02-28T01:17:09;1.10;99.90
59651;DHT22;45954;49.768;8.636;2023-02-28T01:19:35;1.00;99.90
59651;DHT22;45954;49.768;8.636;2023-02-28T01:22:05;1.00;99.90
59651;DHT22;45954;49.768;8.636;2023-02-28T01:24:32;1.10;99.90
59651;DHT22;45954;49.768;8.636;2023-02-28T01:26:58;0.90;99.90
59651;DHT22;45954;49.768;8.636;2023-02-28T01:29:24;0.90;99.90
59651;DHT22;45954;49.768;8.636;2023-02-28T01:31:50;0.80;99.90
59651;DHT22;45954;49.768;8.636;2023-02-28T01:34:16;0.90;99.90
59651;DHT22;45954;49.768;8.636;2023-02-28T01:36:44;1.00;99.90
59651;DHT22;45954;49.768;8.636;2023-02-28T01:39:11;0.70;99.90
59651;DHT22;45954;49.768;8.636;2023-02-28T01:41:38;0.60;99.90
59651;DHT22;45954;49.768;8.636;2023-02-28T01:47:33;0.70;99.90
59651;DHT22;45954;49.768;8.636;2023-02-28T01:50:04;0.40;99.90
59651;DHT22;45954;49.768;8.636;2023-02-28T01:52:33;0.50;99.90
59651;DHT22;45954;49.768;8.636;2023-02-28T01:55:02;0.80;99.90
59651;DHT22;45954;49.768;8.636;2023-02-28T01:57:34;0.60;99.90
59651;DHT22;45954;49.768;8.636;2023-02-28T02:00:13;0.70;99.90
59651;DHT22;45954;49.768;8.636;2023-02-28T02:02:47;0.80;99.90
59651;DHT22;45954;49.768;8.636;2023-02-28T02:05:18;0.80;99.90
59651;DHT22;45954;49.768;8.636;2023-02-28T02:07:54;0.60;99.90
59651;DHT22;45954;49.768;8.636;2023-02-28T02:10:33;0.40;99.90
59651;DHT22;45954;49.768;8.636;2023-02-28T02:13:05;0.60;99.90
59651;DHT22;45954;49.768;8.636;2023-02-28T02:18:52;0.90;99.90
59651;DHT22;45954;49.768;8.636;2023-02-28T02:21:57;0.70;99.90
59651;DHT22;45954;49.768;8.636;2023-02-28T02:30:20;0.60;99.90
59651;DHT22;45954;49.768;8.636;2023-02-28T02:35:56;0.80;99.90
59651;DHT22;45954;49.768;8.636;2023-02-28T02:38:50;0.80;99.90
59651;DHT22;45954;49.768;8.636;2023-02-28T02:41:36;0.80;99.90
59651;DHT22;45954;49.768;8.636;2023-02-28T02:44:46;0.80;99.90
59651;DHT22;45954;49.768;8.636;2023-02-28T02:47:18;0.80;99.90
59651;DHT22;45954;49.768;8.636;2023-02-28T02:49:52;0.50;99.90
59651;DHT22;45954;49.768;8.636;2023-02-28T02:52:28;0.70;99.90
59651;DHT22;45954;49.768;8.636;2023-02-28T02:55:02;0.80;99.90
59651;DHT22;45954;49.768;8.636;2023-02-28T02:57:38;0.50;99.90
59651;DHT22;45954;49.768;8.636;2023-02-28T03:00:09;0.40;99.90
59651;DHT22;45954;49.768;8.636;2023-02-28T03:02:38;0.60;99.90
59651;DHT22;45954;49.768;8.636;2023-02-28T03:05:14;0.70;99.90
59651;DHT22;45954;49.768;8.636;2023-02-28T03:07:43;0.70;99.90
59651;DHT22;45954;49.768;8.636;2023-02-28T03:10:32;0.40;99.90
59651;DHT22;45954;49.768;8.636;2023-02-28T03:13:16;0.50;99.90
59651;DHT22;45954;49.768;8.636;2023-02-28T03:19:24;0.80;99.90
59651;DHT22;45954;49.768;8.636;2023-02-28T03:25:59;0.70;99.90
59651;DHT22;45954;49.768;8.636;2023-02-28T03:28:43;0.70;99.90
59651;DHT22;45954;49.768;8.636;2023-02-28T03:31:42;0.60;99.90
59651;DHT22;45954;49.768;8.636;2023-02-28T03:34:37;0.60;99.90
59651;DHT22;45954;49.768;8.636;2023-02-28T03:37:14;0.60;99.90
59651;DHT22;45954;49.768;8.636;2023-02-28T03:40:01;0.70;99.90
59651;DHT22;45954;49.768;8.636;2023-02-28T03:42:36;0.60;99.90
59651;DHT22;45954;49.768;8.636;2023-02-28T03:45:26;0.50;99.90
59651;DHT22;45954;49.768;8.636;2023-02-28T03:47:57;0.50;99.90
59651;DHT22;45954;49.768;8.636;2023-02-28T03:50:35;0.70;99.90
59651;DHT22;45954;49.768;8.636;2023-02-28T03:56:14;0.80;99.90
59651;DHT22;45954;49.768;8.636;2023-02-28T04:01:49;0.60;99.90
59651;DHT22;45954;49.768;8.636;2023-02-28T04:04:17;0.30;99.90
59651;DHT22;45954;49.768;8.636;2023-02-28T04:06:44;0.20;99.90
59651;DHT22;45954;49.768;8.636;2023-02-28T04:09:14;0.20;99.90
59651;DHT22;45954;49.768;8.636;2023-02-28T04:11:43;0.20;99.90
59651;DHT22;45954;49.768;8.636;2023-02-28T04:14:11;0.20;99.90
59651;DHT22;45954;49.768;8.636;2023-02-28T04:16:41;0.10;99.90
59651;DHT22;45954;49.768;8.636;2023-02-28T04:19:11;0.00;99.90
59651;DHT22;45954;49.768;8.636;2023-02-28T04:21:41;-0.10;99.90
59651;DHT22;45954;49.768;8.636;2023-02-28T04:24:11;-0.30;99.90
59651;DHT22;45954;49.768;8.636;2023-02-28T04:26:44;-0.30;99.90
59651;DHT22;45954;49.768;8.636;2023-02-28T04:29:14;-0.30;99.90
59651;DHT22;45954;49.768;8.636;2023-02-28T04:31:45;-0.40;99.90
59651;DHT22;45954;49.768;8.636;2023-02-28T04:34:10;-0.30;99.90
59651;DHT22;45954;49.768;8.636;2023-02-28T04:36:36;-0.40;99.90
59651;DHT22;45954;49.768;8.636;2023-02-28T04:39:02;-0.20;99.90
59651;DHT22;45954;49.768;8.636;2023-02-28T04:41:29;-0.40;99.90
59651;DHT22;45954;49.768;8.636;2023-02-28T04:43:56;-0.40;99.90
59651;DHT22;45954;49.768;8.636;2023-02-28T04:46:22;-0.40;99.90
59651;DHT22;45954;49.768;8.636;2023-02-28T04:48:49;-0.40;99.90
59651;DHT22;45954;49.768;8.636;2023-02-28T04:51:16;-0.40;99.90
59651;DHT22;45954;49.768;8.636;2023-02-28T04:53:43;-0.30;99.90
59651;DHT22;45954;49.768;8.636;2023-02-28T04:56:15;-0.40;99.90
59651;DHT22;45954;49.768;8.636;2023-02-28T04:58:43;-0.30;99.90
59651;DHT22;45954;49.768;8.636;2023-02-28T05:01:20;-0.20;99.90
59651;DHT22;45954;49.768;8.636;2023-02-28T05:03:48;-0.30;99.90
59651;DHT22;45954;49.768;8.636;2023-02-28T05:06:14;-0.40;99.90
59651;DHT22;45954;49.768;8.636;2023-02-28T05:08:41;-0.30;99.90
59651;DHT22;45954;49.768;8.636;2023-02-28T05:13:47;-0.30;99.90
59651;DHT22;45954;49.768;8.636;2023-02-28T05:16:14;-0.30;99.90
59651;DHT22;45954;49.768;8.636;2023-02-28T05:18:40;-0.40;99.90
59651;DHT22;45954;49.768;8.636;2023-02-28T05:21:06;-0.40;99.90
59651;DHT22;45954;49.768;8.636;2023-02-28T05:23:51;-0.30;99.90
59651;DHT22;45954;49.768;8.636;2023-02-28T05:26:18;-0.30;99.90
59651;DHT22;45954;49.768;8.636;2023-02-28T05:28:44;-0.20;99.90
59651;DHT22;45954;49.768;8.636;2023-02-28T05:31:13;-0.20;99.90
59651;DHT22;45954;49.768;8.636;2023-02-28T05:33:39;-0.10;99.90
59651;DHT22;45954;49.768;8.636;2023-02-28T05:36:06;0.00;99.90
59651;DHT22;45954;49.768;8.636;2023-02-28T05:38:32;0.00;99.90
59651;DHT22;45954;49.768;8.636;2023-02-28T05:40:58;0.00;99.90
59651;DHT22;45954;49.768;8.636;2023-02-28T05:43:24;0.00;99.90
59651;DHT22;45954;49.768;8.636;2023-02-28T05:45:50;-0.10;99.90
59651;DHT22;45954;49.768;8.636;2023-02-28T05:48:16;-0.30;99.90
59651;DHT22;45954;49.768;8.636;2023-02-28T05:50:43;-0.30;99.90
59651;DHT22;45954;49.768;8.636;2023-02-28T05:53:12;-0.10;99.90
59651;DHT22;45954;49.768;8.636;2023-02-28T05:55:37;-0.10;99.90
59651;DHT22;45954;49.768;8.636;2023-02-28T05:58:04;0.10;99.90
59651;DHT22;45954;49.768;8.636;2023-02-28T06:00:29;-0.10;99.90
59651;DHT22;45954;49.768;8.636;2023-02-28T06:02:55;0.00;99.90
59651;DHT22;45954;49.768;8.636;2023-02-28T06:05:23;0.10;99.90
59651;DHT22;45954;49.768;8.636;2023-02-28T06:07:50;0.30;99.90
59651;DHT22;45954;49.768;8.636;2023-02-28T06:10:16;0.40;99.90
59651;DHT22;45954;49.768;8.636;2023-02-28T06:12:42;0.50;99.90
59651;DHT22;45954;49.768;8.636;2023-02-28T06:15:14;0.50;99.90
59651;DHT22;45954;49.768;8.636;2023-02-28T06:17:41;0.10;99.90
59651;DHT22;45954;49.768;8.636;2023-02-28T06:20:08;0.30;99.90
59651;DHT22;45954;49.768;8.636;2023-02-28T06:22:36;0.30;99.90
59651;DHT22;45954;49.768;8.636;2023-02-28T06:25:03;0.40;99.90
59651;DHT22;45954;49.768;8.636;2023-02-28T06:27:31;0.30;99.90
59651;DHT22;45954;49.768;8.636;2023-02-28T06:29:58;0.20;99.90
59651;DHT22;45954;49.768;8.636;2023-02-28T06:32:24;0.10;99.90
59651;DHT22;45954;49.768;8.636;2023-02-28T06:34:50;-0.10;99.90
59651;DHT22;45954;49.768;8.636;2023-02-28T06:37:16;-0.20;99.90
59651;DHT22;45954;49.768;8.636;2023-02-28T06:39:43;0.00;99.90
59651;DHT22;45954;49.768;8.636;2023-02-28T06:42:09;-0.10;99.90
59651;DHT22;45954;49.768;8.636;2023-02-28T06:44:35;0.20;99.90
59651;DHT22;45954;49.768;8.636;2023-02-28T06:47:03;0.40;99.90
59651;DHT22;45954;49.768;8.636;2023-02-28T06:49:32;0.50;99.90
59651;DHT22;45954;49.768;8.636;2023-02-28T06:51:58;0.30;99.90
59651;DHT22;45954;49.768;8.636;2023-02-28T06:54:25;0.20;99.90
59651;DHT22;45954;49.768;8.636;2023-02-28T06:56:50;0.20;99.90
59651;DHT22;45954;49.768;8.636;2023-02-28T06:59:17;0.30;99.90
59651;DHT22;45954;49.768;8.636;2023-02-28T07:01:43;0.50;99.90
59651;DHT22;45954;49.768;8.636;2023-02-28T07:04:09;0.50;99.90
59651;DHT22;45954;49.768;8.636;2023-02-28T07:06:35;0.40;99.90
59651;DHT22;45954;49.768;8.636;2023-02-28T07:09:01;0.40;99.90
59651;DHT22;45954;49.768;8.636;2023-02-28T07:11:27;0.30;99.90
59651;DHT22;45954;49.768;8.636;2023-02-28T07:13:54;0.30;99.90
59651;DHT22;45954;49.768;8.636;2023-02-28T07:16:22;0.20;99.90
59651;DHT22;45954;49.768;8.636;2023-02-28T07:18:51;0.20;99.90
59651;DHT22;45954;49.768;8.636;2023-02-28T07:21:18;0.30;99.90
59651;DHT22;45954;49.768;8.636;2023-02-28T07:23:44;0.30;99.90
59651;DHT22;45954;49.768;8.636;2023-02-28T07:26:15;0.30;99.90
59651;DHT22;45954;49.768;8.636;2023-02-28T07:28:43;0.40;99.90
59651;DHT22;45954;49.768;8.636;2023-02-28T07:31:11;0.50;99.90
59651;DHT22;45954;49.768;8.636;2023-02-28T07:33:37;0.80;99.90
59651;DHT22;45954;49.768;8.636;2023-02-28T07:36:06;0.90;99.90
59651;DHT22;45954;49.768;8.636;2023-02-28T07:38:37;0.90;99.90
59651;DHT22;45954;49.768;8.636;2023-02-28T07:41:04;1.00;99.90
59651;DHT22;45954;49.768;8.636;2023-02-28T07:43:31;1.10;99.90
59651;DHT22;45954;49.768;8.636;2023-02-28T07:46:06;1.10;99.90
59651;DHT22;45954;49.768;8.636;2023-02-28T07:48:36;1.10;99.90
59651;DHT22;45954;49.768;8.636;2023-02-28T07:51:03;1.30;99.90
59651;DHT22;45954;49.768;8.636;2023-02-28T07:53:29;1.30;99.90
59651;DHT22;45954;49.768;8.636;2023-02-28T07:55:57;1.50;99.90
59651;DHT22;45954;49.768;8.636;2023-02-28T07:58:23;1.60;99.90
59651;DHT22;45954;49.768;8.636;2023-02-28T08:00:50;1.60;99.90
59651;DHT22;45954;49.768;8.636;2023-02-28T08:03:18;1.70;99.90
59651;DHT22;45954;49.768;8.636;2023-02-28T08:05:47;1.70;99.40
59651;DHT22;45954;49.768;8.636;2023-02-28T08:08:14;1.90;99.40
59651;DHT22;45954;49.768;8.636;2023-02-28T08:10:41;2.00;99.90
59651;DHT22;45954;49.768;8.636;2023-02-28T08:13:07;2.30;99.20
59651;DHT22;45954;49.768;8.636;2023-02-28T08:15:33;2.30;98.50
59651;DHT22;45954;49.768;8.636;2023-02-28T08:17:59;2.40;98.00
59651;DHT22;45954;49.768;8.636;2023-02-28T08:20:26;2.30;98.10
59651;DHT22;45954;49.768;8.636;2023-02-28T08:22:52;2.30;98.50
59651;DHT22;45954;49.768;8.636;2023-02-28T08:25:18;2.50;98.40
59651;DHT22;45954;49.768;8.636;2023-02-28T08:27:44;2.50;97.70
59651;DHT22;45954;49.768;8.636;2023-02-28T08:30:13;2.50;97.70
59651;DHT22;45954;49.768;8.636;2023-02-28T08:32:40;2.60;98.10
59651;DHT22;45954;49.768;8.636;2023-02-28T08:35:07;2.70;97.60
59651;DHT22;45954;49.768;8.636;2023-02-28T08:37:34;2.60;97.50
59651;DHT22;45954;49.768;8.636;2023-02-28T08:40:00;2.60;97.30
59651;DHT22;45954;49.768;8.636;2023-02-28T08:42:26;2.80;98.10
59651;DHT22;45954;49.768;8.636;2023-02-28T08:44:52;2.90;97.10
59651;DHT22;45954;49.768;8.636;2023-02-28T08:47:18;3.00;96.90
59651;DHT22;45954;49.768;8.636;2023-02-28T08:49:45;3.00;97.10
59651;DHT22;45954;49.768;8.636;2023-02-28T08:52:10;2.90;97.00
59651;DHT22;45954;49.768;8.636;2023-02-28T08:54:36;3.30;98.00
59651;DHT22;45954;49.768;8.636;2023-02-28T08:57:03;3.80;96.90
59651;DHT22;45954;49.768;8.636;2023-02-28T08:59:29;3.80;96.40
59651;DHT22;45954;49.768;8.636;2023-02-28T09:01:55;3.60;96.00
59651;DHT22;45954;49.768;8.636;2023-02-28T09:04:21;3.50;96.40
59651;DHT22;45954;49.768;8.636;2023-02-28T09:06:47;3.20;97.20
59651;DHT22;45954;49.768;8.636;2023-02-28T09:09:15;3.40;98.10
59651;DHT22;45954;49.768;8.636;2023-02-28T09:11:41;3.70;95.70
59651;DHT22;45954;49.768;8.636;2023-02-28T09:14:08;3.70;96.50
59651;DHT22;45954;49.768;8.636;2023-02-28T09:16:34;3.70;96.50
59651;DHT22;45954;49.768;8.636;2023-02-28T09:19:01;3.80;96.30
59651;DHT22;45954;49.768;8.636;2023-02-28T09:21:28;3.60;96.10
59651;DHT22;45954;49.768;8.636;2023-02-28T09:23:54;3.90;96.90
59651;DHT22;45954;49.768;8.636;2023-02-28T09:26:26;4.30;95.40
59651;DHT22;45954;49.768;8.636;2023-02-28T09:28:53;4.00;95.90
59651;DHT22;45954;49.768;8.636;2023-02-28T09:31:23;4.70;95.90
59651;DHT22;45954;49.768;8.636;2023-02-28T09:33:51;4.90;94.10
59651;DHT22;45954;49.768;8.636;2023-02-28T09:36:19;4.90;94.90
59651;DHT22;45954;49.768;8.636;2023-02-28T09:38:46;5.30;94.70
59651;DHT22;45954;49.768;8.636;2023-02-28T09:41:22;5.60;93.10
59651;DHT22;45954;49.768;8.636;2023-02-28T09:43:55;5.20;92.90
59651;DHT22;45954;49.768;8.636;2023-02-28T09:46:37;5.10;92.50
59651;DHT22;45954;49.768;8.636;2023-02-28T09:49:40;4.50;92.10
59651;DHT22;45954;49.768;8.636;2023-02-28T09:52:17;4.90;92.00
59651;DHT22;45954;49.768;8.636;2023-02-28T09:54:45;5.20;91.90
59651;DHT22;45954;49.768;8.636;2023-02-28T09:57:34;5.40;91.00
59651;DHT22;45954;49.768;8.636;2023-02-28T10:00:18;5.30;92.00
59651;DHT22;45954;49.768;8.636;2023-02-28T10:06:07;5.70;90.70
59651;DHT22;45954;49.768;8.636;2023-02-28T10:08:58;5.70;89.00
59651;DHT22;45954;49.768;8.636;2023-02-28T10:11:28;6.00;89.40
59651;DHT22;45954;49.768;8.636;2023-02-28T10:14:00;5.90;85.50
59651;DHT22;45954;49.768;8.636;2023-02-28T10:16:43;6.10;88.00
59651;DHT22;45954;49.768;8.636;2023-02-28T10:22:15;6.10;83.70
59651;DHT22;45954;49.768;8.636;2023-02-28T10:24:52;6.40;82.20
59651;DHT22;45954;49.768;8.636;2023-02-28T10:27:25;6.40;83.50
59651;DHT22;45954;49.768;8.636;2023-02-28T10:29:56;6.50;83.90
59651;DHT22;45954;49.768;8.636;2023-02-28T10:32:30;6.80;80.40
59651;DHT22;45954;49.768;8.636;2023-02-28T10:37:43;6.60;80.00
59651;DHT22;45954;49.768;8.636;2023-02-28T10:45:51;6.80;78.50
59651;DHT22;45954;49.768;8.636;2023-02-28T10:50:51;6.70;77.50
59651;DHT22;45954;49.768;8.636;2023-02-28T10:58:56;7.10;77.80
59651;DHT22;45954;49.768;8.636;2023-02-28T11:01:46;7.20;76.70
59651;DHT22;45954;49.768;8.636;2023-02-28T11:07:16;7.10;74.90
59651;DHT22;45954;49.768;8.636;2023-02-28T11:09:56;7.10;75.20
59651;DHT22;45954;49.768;8.636;2023-02-28T11:12:37;7.10;75.70
59651;DHT22;45954;49.768;8.636;2023-02-28T11:15:29;7.10;75.50
59651;DHT22;45954;49.768;8.636;2023-02-28T11:18:22;7.40;73.80
59651;DHT22;45954;49.768;8.636;2023-02-28T11:20:51;7.40;74.60
59651;DHT22;45954;49.768;8.636;2023-02-28T11:23:21;7.20;75.10
59651;DHT22;45954;49.768;8.636;2023-02-28T11:25:54;7.40;77.10
59651;DHT22;45954;49.768;8.636;2023-02-28T11:28:48;7.50;77.30
59651;DHT22;45954;49.768;8.636;2023-02-28T11:33:44;8.30;72.30
59651;DHT22;45954;49.768;8.636;2023-02-28T11:38:46;8.10;73.60
59651;DHT22;45954;49.768;8.636;2023-02-28T11:41:22;8.30;72.90
59651;DHT22;45954;49.768;8.636;2023-02-28T11:47:47;8.30;72.10
59651;DHT22;45954;49.768;8.636;2023-02-28T11:53:53;8.20;71.80
59651;DHT22;45954;49.768;8.636;2023-02-28T11:56:44;8.50;73.60
59651;DHT22;45954;49.768;8.636;2023-02-28T12:02:33;7.90;71.80
59651;DHT22;45954;49.768;8.636;2023-02-28T12:11:23;8.20;71.70
59651;DHT22;45954;49.768;8.636;2023-02-28T12:20:16;8.90;70.80
59651;DHT22;45954;49.768;8.636;2023-02-28T12:25:47;8.60;69.70
59651;DHT22;45954;49.768;8.636;2023-02-28T12:28:23;8.90;70.70
59651;DHT22;45954;49.768;8.636;2023-02-28T12:31:00;9.10;69.70
59651;DHT22;45954;49.768;8.636;2023-02-28T12:33:39;9.20;69.20
59651;DHT22;45954;49.768;8.636;2023-02-28T12:36:17;8.90;69.40
59651;DHT22;45954;49.768;8.636;2023-02-28T12:47:12;9.30;69.20
59651;DHT22;45954;49.768;8.636;2023-02-28T12:49:48;8.70;69.40
59651;DHT22;45954;49.768;8.636;2023-02-28T13:07:29;8.60;70.00
59651;DHT22;45954;49.768;8.636;2023-02-28T13:10:06;8.10;68.80
59651;DHT22;45954;49.768;8.636;2023-02-28T13:12:34;8.80;70.10
59651;DHT22;45954;49.768;8.636;2023-02-28T13:15:22;8.80;68.70
59651;DHT22;45954;49.768;8.636;2023-02-28T13:17:56;8.20;68.90
59651;DHT22;45954;49.768;8.636;2023-02-28T13:20:36;8.70;69.60
59651;DHT22;45954;49.768;8.636;2023-02-28T13:23:03;8.60;69.00
59651;DHT22;45954;49.768;8.636;2023-02-28T13:28:01;8.60;68.20
59651;DHT22;45954;49.768;8.636;2023-02-28T13:33:37;8.60;70.60
59651;DHT22;45954;49.768;8.636;2023-02-28T13:36:29;8.60;68.70
59651;DHT22;45954;49.768;8.636;2023-02-28T13:38:59;8.50;71.20
59651;DHT22;45954;49.768;8.636;2023-02-28T13:44:07;9.30;68.50
59651;DHT22;45954;49.768;8.636;2023-02-28T13:49:31;9.70;69.00
59651;DHT22;45954;49.768;8.636;2023-02-28T13:58:09;9.70;66.30
59651;DHT22;45954;49.768;8.636;2023-02-28T14:03:38;10.10;66.40
59651;DHT22;45954;49.768;8.636;2023-02-28T14:06:31;9.90;68.40
59651;DHT22;45954;49.768;8.636;2023-02-28T14:11:45;10.00;65.30
59651;DHT22;45954;49.768;8.636;2023-02-28T14:17:05;9.30;65.20
59651;DHT22;45954;49.768;8.636;2023-02-28T14:19:35;9.30;65.60
59651;DHT22;45954;49.768;8.636;2023-02-28T14:25:23;9.70;66.20
59651;DHT22;45954;49.768;8.636;2023-02-28T14:28:23;10.10;65.10
59651;DHT22;45954;49.768;8.636;2023-02-28T14:31:06;10.20;65.20
59651;DHT22;45954;49.768;8.636;2023-02-28T14:33:57;11.40;65.10
59651;DHT22;45954;49.768;8.636;2023-02-28T14:36:36;11.10;63.20
59651;DHT22;45954;49.768;8.636;2023-02-28T14:39:13;12.20;60.30
59651;DHT22;45954;49.768;8.636;2023-02-28T14:41:43;12.00;60.50
59651;DHT22;45954;49.768;8.636;2023-02-28T14:44:24;11.90;60.10
59651;DHT22;45954;49.768;8.636;2023-02-28T14:47:00;12.50;59.60
59651;DHT22;45954;49.768;8.636;2023-02-28T14:49:45;13.00;57.20
59651;DHT22;45954;49.768;8.636;2023-02-28T14:54:57;13.10;57.70
59651;DHT22;45954;49.768;8.636;2023-02-28T14:57:31;13.40;56.30
59651;DHT22;45954;49.768;8.636;2023-02-28T15:02:42;12.00;59.20
59651;DHT22;45954;49.768;8.636;2023-02-28T15:07:43;13.90;55.20
59651;DHT22;45954;49.768;8.636;2023-02-28T15:10:27;14.30;54.90
59651;DHT22;45954;49.768;8.636;2023-02-28T15:13:06;14.90;53.50
59651;DHT22;45954;49.768;8.636;2023-02-28T15:15:52;16.00;51.70
59651;DHT22;45954;49.768;8.636;2023-02-28T15:18:56;15.90;51.50
59651;DHT22;45954;49.768;8.636;2023-02-28T15:21:34;16.20;51.10
59651;DHT22;45954;49.768;8.636;2023-02-28T15:24:21;16.40;50.90
59651;DHT22;45954;49.768;8.636;2023-02-28T15:27:06;15.50;51.10
59651;DHT22;45954;49.768;8.636;2023-02-28T15:29:44;15.60;50.60
59651;DHT22;45954;49.768;8.636;2023-02-28T15:32:37;13.40;53.40
59651;DHT22;45954;49.768;8.636;2023-02-28T15:35:28;13.10;53.20
59651;DHT22;45954;49.768;8.636;2023-02-28T15:38:11;11.70;55.90
59651;DHT22;45954;49.768;8.636;2023-02-28T15:40:49;11.00;56.60
59651;DHT22;45954;49.768;8.636;2023-02-28T15:43:27;10.50;57.80
59651;DHT22;45954;49.768;8.636;2023-02-28T15:46:11;10.10;58.50
59651;DHT22;45954;49.768;8.636;2023-02-28T15:48:53;10.10;58.60
59651;DHT22;45954;49.768;8.636;2023-02-28T15:51:36;9.60;59.10
59651;DHT22;45954;49.768;8.636;2023-02-28T15:54:08;9.80;59.60
59651;DHT22;45954;49.768;8.636;2023-02-28T15:56:47;9.60;60.10
59651;DHT22;45954;49.768;8.636;2023-02-28T15:59:21;9.00;60.50
59651;DHT22;45954;49.768;8.636;2023-02-28T16:02:15;9.00;61.20
59651;DHT22;45954;49.768;8.636;2023-02-28T16:04:59;9.80;60.70
59651;DHT22;45954;49.768;8.636;2023-02-28T16:07:29;9.60;60.50
59651;DHT22;45954;49.768;8.636;2023-02-28T16:09:55;9.60;60.00
59651;DHT22;45954;49.768;8.636;2023-02-28T16:12:26;9.80;60.30
59651;DHT22;45954;49.768;8.636;2023-02-28T16:14:55;10.50;59.60
59651;DHT22;45954;49.768;8.636;2023-02-28T16:17:29;10.50;59.50
59651;DHT22;45954;49.768;8.636;2023-02-28T16:19:57;9.50;60.80
59651;DHT22;45954;49.768;8.636;2023-02-28T16:22:23;9.20;61.60
59651;DHT22;45954;49.768;8.636;2023-02-28T16:24:49;9.00;61.70
59651;DHT22;45954;49.768;8.636;2023-02-28T16:27:31;8.70;62.50
59651;DHT22;45954;49.768;8.636;2023-02-28T16:29:59;8.60;62.00
59651;DHT22;45954;49.768;8.636;2023-02-28T16:32:25;8.30;62.30
59651;DHT22;45954;49.768;8.636;2023-02-28T16:34:51;7.90;63.00
59651;DHT22;45954;49.768;8.636;2023-02-28T16:37:17;7.90;64.30
59651;DHT22;45954;49.768;8.636;2023-02-28T16:39:45;7.60;64.60
59651;DHT22;45954;49.768;8.636;2023-02-28T16:42:20;7.40;64.80
59651;DHT22;45954;49.768;8.636;2023-02-28T16:44:48;7.10;65.70
59651;DHT22;45954;49.768;8.636;2023-02-28T16:47:14;6.80;66.50
59651;DHT22;45954;49.768;8.636;2023-02-28T16:49:40;6.90;66.60
59651;DHT22;45954;49.768;8.636;2023-02-28T16:52:14;6.80;67.80
59651;DHT22;45954;49.768;8.636;2023-02-28T16:54:41;6.70;68.50
59651;DHT22;45954;49.768;8.636;2023-02-28T16:57:21;6.60;68.00
59651;DHT22;45954;49.768;8.636;2023-02-28T16:59:49;6.60;68.20
59651;DHT22;45954;49.768;8.636;2023-02-28T17:02:19;6.50;68.30
59651;DHT22;45954;49.768;8.636;2023-02-28T17:04:46;6.40;68.70
59651;DHT22;45954;49.768;8.636;2023-02-28T17:07:15;6.30;68.90
59651;DHT22;45954;49.768;8.636;2023-02-28T17:09:43;6.30;69.00
59651;DHT22;45954;49.768;8.636;2023-02-28T17:12:10;6.20;69.10
59651;DHT22;45954;49.768;8.636;2023-02-28T17:14:37;6.10;69.60
59651;DHT22;45954;49.768;8.636;2023-02-28T17:17:05;6.20;69.80
59651;DHT22;45954;49.768;8.636;2023-02-28T17:19:31;6.30;70.40
59651;DHT22;45954;49.768;8.636;2023-02-28T17:21:59;6.20;70.70
59651;DHT22;45954;49.768;8.636;2023-02-28T17:24:24;6.10;70.80
59651;DHT22;45954;49.768;8.636;2023-02-28T17:26:50;6.00;71.40
59651;DHT22;45954;49.768;8.636;2023-02-28T17:29:19;5.70;72.00
59651;DHT22;45954;49.768;8.636;2023-02-28T17:31:46;5.70;72.30
59651;DHT22;45954;49.768;8.636;2023-02-28T17:34:12;5.80;72.70
59651;DHT22;45954;49.768;8.636;2023-02-28T17:36:49;5.70;72.80
59651;DHT22;45954;49.768;8.636;2023-02-28T17:39:18;5.60;73.30
59651;DHT22;45954;49.768;8.636;2023-02-28T17:41:55;5.60;73.60
59651;DHT22;45954;49.768;8.636;2023-02-28T17:44:22;5.80;72.90
59651;DHT22;45954;49.768;8.636;2023-02-28T17:46:54;5.70;73.50
59651;DHT22;45954;49.768;8.636;2023-02-28T17:49:20;5.50;74.00
59651;DHT22;45954;49.768;8.636;2023-02-28T17:51:48;5.50;75.20
59651;DHT22;45954;49.768;8.636;2023-02-28T17:54:14;5.50;75.30
59651;DHT22;45954;49.768;8.636;2023-02-28T17:56:41;5.30;75.00
59651;DHT22;45954;49.768;8.636;2023-02-28T17:59:12;5.40;75.30
59651;DHT22;45954;49.768;8.636;2023-02-28T18:01:38;5.20;76.20
59651;DHT22;45954;49.768;8.636;2023-02-28T18:04:04;5.30;76.00
59651;DHT22;45954;49.768;8.636;2023-02-28T18:06:37;5.40;76.20
59651;DHT22;45954;49.768;8.636;2023-02-28T18:09:22;5.20;76.30
59651;DHT22;45954;49.768;8.636;2023-02-28T18:11:49;5.00;77.30
59651;DHT22;45954;49.768;8.636;2023-02-28T18:14:17;5.30;77.90
59651;DHT22;45954;49.768;8.636;2023-02-28T18:16:46;5.50;77.50
59651;DHT22;45954;49.768;8.636;2023-02-28T18:19:13;5.30;78.10
59651;DHT22;45954;49.768;8.636;2023-02-28T18:21:41;5.20;79.00
59651;DHT22;45954;49.768;8.636;2023-02-28T18:24:08;5.20;79.90
59651;DHT22;45954;49.768;8.636;2023-02-28T18:26:36;5.20;79.90
59651;DHT22;45954;49.768;8.636;2023-02-28T18:29:03;5.30;79.60
59651;DHT22;45954;49.768;8.636;2023-02-28T18:31:29;5.30;79.90
59651;DHT22;45954;49.768;8.636;2023-02-28T18:33:57;5.20;80.50
59651;DHT22;45954;49.768;8.636;2023-02-28T18:36:24;5.30;79.70
59651;DHT22;45954;49.768;8.636;2023-02-28T18:38:51;5.30;80.00